Nearby METAR Reports

METAR is the scheduled surface weather observation taken hourly at civil and military airport locations.

METAR is an acronym from the French language and roughly translates as Aviation Routine Weather Report.

 

EGPL - Benbecula Island, United Kingdom
Distance from station: WNW 41mi, 66km
Updated: 19/01/2022 02:20
Mostly cloudy
Mostly cloudy
 Wind from NW
Wind: NW 30 mph , 48 km/h
Temperature: 8°C
Wind Chill: 3°C
Dew Point: 5°C
Humidity: 82%
Barometer: 1014 hPa
Clouds: Mostly cloudy
Visibility: 6 miles , 10 km
Cloud details: Few Clouds 457 m
Mostly cloudy 671 m
Mostly cloudy 823 m
2022/01/19 02:20 EGPL 190220Z AUTO 31026KT 9999 FEW015/// BKN022/// BKN027/// 08/05 Q1014 RERA
EGPU - Tiree Island, United Kingdom
Distance from station: SSW 56mi, 90km
Updated: 19/01/2022 02:20
Partly cloudy
Partly cloudy
 Wind from WNW
Wind: WNW 28 mph , 44 km/h
Temperature: 8°C
Wind Chill: 3°C
Dew Point: 7°C
Humidity: 93%
Barometer: 1017 hPa
Clouds: Partly cloudy
Visibility: 6 miles , 10 km
Cloud details: Few Clouds 457 m
Partly cloudy 549 m
2022/01/19 02:20 EGPU 190220Z AUTO 30024KT 270V330 9999 FEW015/// SCT018/// 08/07 Q1017 REUP
 
EGEO - Oban Airport, United Kingdom
Distance from station: SE 65mi, 105km
Updated: 18/01/2022 15:50
NOT Current
Light rain, Drizzle, Mostly cloudy
Light rain, Drizzle, Mostly cloudy
 Wind from S
Wind: S 16 mph , 26 km/h
Temperature: 8°C
Wind Chill: 4°C
Dew Point: 6°C
Humidity: 87%
Barometer: 1025 hPa
Summary: Light rain, Drizzle
Clouds: Mostly cloudy
Visibility: 3 miles , 5 km
Cloud details: Mostly cloudy 396 m
2022/01/18 15:50 EGEO 181550Z 18014KT 5000 -RADZ BKN013 08/06 Q1025
EGPO - Stornoway, United Kingdom
Distance from station: 0 66mi, 106km
Updated: 19/01/2022 02:20
Light rain, Mostly cloudy
Light rain, Mostly cloudy
 Wind from WNW
Wind: WNW 22 mph , 35 km/h, Gust: 36 mph , 57 km/h
Temperature: 7°C
Wind Chill: 3°C
Dew Point: 6°C
Humidity: 93%
Barometer: 1011 hPa
Summary: Light rain
Clouds: Mostly cloudy
Visibility: 4 miles , 6 km
Cloud details: Few Clouds 30 m
Partly cloudy 335 m
Mostly cloudy 579 m
2022/01/19 02:20 EGPO 190220Z AUTO 30019G31KT 6000 -RA FEW001/// SCT011/// BKN019/// 07/06 Q1011 RERA
 
EGPE - Inverness/Dalcro, United Kingdom
Distance from station: ENE 88mi, 141km
Updated: 19/01/2022 02:20
Mostly cloudy
Mostly cloudy
 Wind from SW
Wind: SW 18 mph , 30 km/h
Temperature: 9°C
Wind Chill: 5°C
Dew Point: 7°C
Humidity: 87%
Barometer: 1011 hPa
Clouds: Mostly cloudy
Visibility: 6 miles , 10 km
Cloud details: Mostly cloudy 1189 m
2022/01/19 02:20 EGPE 190220Z AUTO 22016KT 9999 BKN039/// 09/07 Q1011
EGQA - Tain Range (saws, United Kingdom
Distance from station: ENE 97mi, 156km
Updated: 18/01/2022 14:50
NOT Current
Mostly cloudy
Mostly cloudy
 Wind from SSW
Wind: SSW 15 mph , 24 km/h
Clouds: Mostly cloudy
Visibility: 6 miles , 10 km
Cloud details: Few Clouds 427 m
Mostly cloudy 4267 m
2022/01/18 14:50 EGQA 181450Z 20013KT 9999 FEW014 BKN140 08/// Q1023 RMK BLU
 
EGQK - Kinloss Raf, United Kingdom
Distance from station: ENE 107mi, 171km
Updated: 19/01/2022 01:50
Partly cloudy
Partly cloudy
 Wind from SW
Wind: SW 15 mph , 24 km/h
Temperature: 10°C
Wind Chill: 7°C
Dew Point: 7°C
Humidity: 82%
Barometer: 1011 hPa
Clouds: Partly cloudy
Visibility: 6 miles , 10 km
Cloud details: Mostly cloudy 1097 m
Partly cloudy 1524 m
2022/01/19 01:50 EGQK 190150Z AUTO 22013KT 9999 BKN036/// SCT050/// 10/07 Q1011 RERA
EGPI - Islay/Port Ellen, United Kingdom
Distance from station: S 110mi, 177km
Updated: 19/01/2022 02:20
Partly cloudy
Partly cloudy
 Wind from WSW
Wind: WSW 26 mph , 43 km/h
Temperature: 10°C
Wind Chill: 6°C
Dew Point: 9°C
Humidity: 94%
Barometer: 1019 hPa
Clouds: Partly cloudy
Visibility: 4 miles , 7 km
Cloud details: Mostly cloudy 274 m
Partly cloudy 549 m
2022/01/19 02:20 EGPI 190220Z AUTO 24023KT 7000 UP BKN009/// SCT018/// 10/09 Q1019
 
EGQS - Lossiemouth Raf, United Kingdom
Distance from station: ENE 117mi, 188km
Updated: 19/01/2022 01:50
Clear
Clear
 Wind from SW
Wind: SW 17 mph , 28 km/h
Temperature: 9°C
Wind Chill: 6°C
Dew Point: 6°C
Humidity: 82%
Barometer: 1011 hPa
Summary: Clear
Visibility: greater than 7 miles , 10 km
2022/01/19 01:50 EGQS 190150Z 22015KT CAVOK 09/06 Q1011 RMK BLU
EGPF - Glasgow Airport, United Kingdom
Distance from station: SE 121mi, 195km
Updated: 19/01/2022 02:20
Light rain, Thunderstorm
Light rain, Thunderstorm
 Wind from SW
Wind: SW 22 mph , 35 km/h
Temperature: 9°C
Wind Chill: 5°C
Dew Point: 8°C
Humidity: 94%
Barometer: 1018 hPa
Summary: Light rain
Clouds: Thunderstorm
Visibility: 4 miles , 7 km
Cloud details: Few Clouds 396 m
Mostly cloudy 549 m
Overcast 1067 m
2022/01/19 02:20 EGPF 190220Z AUTO 22019KT 7000 -RA FEW013/// BKN018/// OVC035/// //////TCU 09/08 Q1018
 
EGEC - Campbeltown, United Kingdom
Distance from station: SSE 129mi, 207km
Updated: 18/01/2022 17:20
NOT Current
Mostly cloudy
Mostly cloudy
 Wind from SSW
Wind: SSW 21 mph , 33 km/h
Temperature: 9°C
Wind Chill: 5°C
Dew Point: 7°C
Humidity: 87%
Barometer: 1026 hPa
Clouds: Mostly cloudy
Visibility: 6 miles , 10 km
Cloud details: Few Clouds 640 m
Mostly cloudy 1372 m
2022/01/18 17:20 EGEC 181720Z 20018KT 9999 FEW021 BKN045 09/07 Q1026
EGPN - Dundee/Riverside, United Kingdom
Distance from station: ESE 137mi, 221km
Updated: 18/01/2022 20:50
NOT Current
Partly cloudy
Partly cloudy
 Wind from WSW
Wind: WSW 15 mph , 24 km/h
Temperature: 8°C
Wind Chill: 4°C
Dew Point: 6°C
Humidity: 87%
Barometer: 1022 hPa
Clouds: Partly cloudy
Visibility: 6 miles , 10 km
Cloud details: Few Clouds 305 m
Partly cloudy 396 m
2022/01/18 20:50 EGPN 182050Z 24013KT 9999 FEW010 SCT013 08/06 Q1022
 
EGPK - Prestwick(Civ/Na, United Kingdom
Distance from station: SSE 139mi, 224km
Updated: 19/01/2022 02:20
Light rain, Mostly cloudy
Light rain, Mostly cloudy
 Wind from SW
Wind: SW 21 mph , 33 km/h
Temperature: 10°C
Wind Chill: 6°C
Dew Point: 8°C
Humidity: 88%
Barometer: 1020 hPa
Summary: Light rain
Clouds: Mostly cloudy
Visibility: 6 miles , 10 km
Cloud details: Mostly cloudy 640 m
2022/01/19 02:20 EGPK 190220Z 23018KT 9999 -RA BKN021 10/08 Q1020
EGQL - Leuchars Raf, United Kingdom
Distance from station: ESE 145mi, 233km
Updated: 19/01/2022 01:50
Mostly cloudy
Mostly cloudy
 Wind from WSW
Wind: WSW 25 mph , 41 km/h
Temperature: 9°C
Wind Chill: 4°C
Dew Point: 7°C
Humidity: 87%
Barometer: 1016 hPa
Clouds: Mostly cloudy
Visibility: 6 miles , 10 km
Cloud details: Mostly cloudy 488 m
2022/01/19 01:50 EGQL 190150Z 24022KT 9999 BKN016 09/07 Q1016 RMK WHT
 
EGPH - Edinburgh Airpor, United Kingdom
Distance from station: SE 145mi, 234km
Updated: 19/01/2022 02:20
Mostly cloudy
Mostly cloudy
 Wind from WSW
Wind: WSW 23 mph , 37 km/h, Gust: 35 mph , 56 km/h
Temperature: 9°C
Wind Chill: 4°C
Dew Point: 7°C
Humidity: 87%
Barometer: 1017 hPa
Clouds: Mostly cloudy
Visibility: 6 miles , 10 km
Cloud details: Mostly cloudy 488 m
2022/01/19 02:20 EGPH 190220Z 24020G30KT 9999 BKN016 09/07 Q1017
EGPC - Wick, United Kingdom
Distance from station: NE 146mi, 234km
Updated: 19/01/2022 02:20
Mostly cloudy
Mostly cloudy
 Wind from SSW
Wind: SSW 6 mph , 9 km/h
Temperature: 8°C
Wind Chill: 6°C
Dew Point: 6°C
Humidity: 87%
Barometer: 1009 hPa
Clouds: Mostly cloudy
Visibility: 6 miles , 10 km
Cloud details: Partly cloudy 549 m
Mostly cloudy 701 m
Mostly cloudy 1097 m
2022/01/19 02:20 EGPC 190220Z AUTO 21005KT 190V250 9999 SCT018/// BKN023/// BKN036/// 08/06 Q1009

-

free counters
QR Code Twitter Scottish Weather Network UK Weather Network
Argyll House B & B

Argyll House B & B is situated in North West Skye and is the perfect base to see all that the Isle of Skye has to offer. Bookings are been taken for 2021 and 2022